Catàleg de serveis del Meteocat

Dades de l'estació automàtica Aldover

?
?
Resum diari 23:00 TU
Dades diàries de l'estació meteorològica
Temperatura mitjana 11.0 °C
Temperatura màxima 17.4 °C 15:17 TU
Temperatura mínima 7.9 °C 23:29 TU
Humitat relativa mitjana 91%
Precipitació acumulada 3.0 mm
Ratxa màxima del vent (2 m) 21.6 km/h - 290º 16:18 TU
Irradiació solar global 6.2 MJ/m2

El tram horari està expressat en Temps Universal (TU). Cal sumar una hora en horari d'hivern i dues en horari d'estiu per passar a l'hora oficial.

Aldover

Metadades estació meteorol´gica
Municipi Aldover
Comarca Baix Ebre
Altitud 52 m
Data alta 31.12.1994
Estat actual Operativa
Dades de període
Període
TU
TM
°C
TX
°C
TN
°C
HRM
%
PPT
mm
VVM (2 m)
km/h
DVM (2 m)
graus
VVX (2 m)
km/h
RS
W/m2
00:00 - 00:30 8.9 9.2 8.7 98 0.0 1.8 342 3.6 0
00:30 - 01:00 8.4 8.7 8.3 98 0.0 0.7 340 4.3 0
01:00 - 01:30 8.8 9.0 8.5 98 0.0 1.4 342 5.4 0
01:30 - 02:00 8.8 9.0 8.6 98 0.0 1.1 333 4.7 0
02:00 - 02:30 8.8 9.0 8.5 98 0.0 1.8 352 5.8 0
02:30 - 03:00 8.6 8.7 8.4 98 0.0 1.8 319 5.0 0
03:00 - 03:30 8.2 8.4 8.1 98 0.0 1.1 313 4.0 0
03:30 - 04:00 8.5 8.6 8.5 99 0.0 0.4 65 2.5 0
04:00 - 04:30 8.6 8.8 8.5 99 0.0 1.4 308 4.0 0
04:30 - 05:00 8.9 9.0 8.8 99 0.0 2.2 353 7.2 0
05:00 - 05:30 8.8 8.9 8.7 98 0.0 2.2 323 7.6 0
05:30 - 06:00 8.9 9.1 8.9 98 0.0 1.4 351 8.3 0
06:00 - 06:30 9.1 9.1 9.0 97 0.0 1.8 359 6.5 0
06:30 - 07:00 9.2 9.3 9.1 97 0.0 0.7 325 5.0 2
07:00 - 07:30 9.2 9.4 9.1 98 0.0 1.8 320 5.8 23
07:30 - 08:00 9.5 9.7 9.4 97 0.0 3.2 12 6.8 32
08:00 - 08:30 9.8 9.9 9.7 97 0.0 2.5 293 7.2 47
08:30 - 09:00 10.4 10.7 10.0 95 0.0 2.5 5 7.9 83
09:00 - 09:30 11.0 11.4 10.7 93 0.0 2.9 6 7.9 110
09:30 - 10:00 11.6 12.2 11.4 89 0.0 5.0 352 11.2 172
10:00 - 10:30 12.4 12.8 12.1 86 0.0 4.7 3 10.8 207
10:30 - 11:00 13.4 13.7 12.8 83 0.0 3.6 349 8.6 322
11:00 - 11:30 13.7 13.9 13.5 81 0.0 2.5 324 7.6 237
11:30 - 12:00 14.6 15.0 14.0 77 0.0 3.6 353 10.1 443
12:00 - 12:30 15.4 16.3 14.6 71 0.0 2.9 356 8.3 510
12:30 - 13:00 16.2 16.4 15.7 69 0.0 1.1 32 4.7 236
13:00 - 13:30 15.8 15.9 15.7 73 0.0 0.7 175 4.7 162
13:30 - 14:00 16.1 16.5 15.8 73 0.0 0.7 207 9.4 222
14:00 - 14:30 16.4 16.7 16.0 73 0.0 2.2 228 7.6 237
14:30 - 15:00 16.2 17.0 15.7 76 0.0 1.1 194 6.8 189
15:00 - 15:30 16.8 17.4 16.3 72 0.0 0.7 209 4.7 151
15:30 - 16:00 15.5 16.3 14.6 76 0.0 1.4 212 7.2 48
16:00 - 16:30 14.3 14.6 13.5 78 0.1 5.8 277 21.6 5
16:30 - 17:00 11.9 13.3 10.8 87 2.6 5.4 32 17.6 0
17:00 - 17:30 10.8 10.9 10.7 94 0.2 2.9 75 9.7 0
17:30 - 18:00 10.8 11.0 10.6 95 0.0 2.2 289 6.1 0
18:00 - 18:30 10.5 10.7 10.5 96 0.0 2.2 327 7.6 0
18:30 - 19:00 10.4 10.6 10.2 96 0.0 1.1 318 5.0 0
19:00 - 19:30 10.1 10.2 10.0 96 0.0 2.2 324 6.5 0
19:30 - 20:00 9.8 9.9 9.5 97 0.0 1.1 47 3.6 0
20:00 - 20:30 9.4 9.6 9.3 97 0.0 2.5 347 8.3 0
20:30 - 21:00 9.4 9.6 9.4 96 0.1 2.5 316 6.5 0
21:00 - 21:30 9.4 9.5 9.3 95 0.0 2.2 335 7.6 0
21:30 - 22:00 9.0 9.3 8.6 95 0.0 1.8 20 5.8 0
22:00 - 22:30 8.4 8.6 8.3 97 0.0 1.1 15 4.0 0
22:30 - 23:00 8.3 8.4 8.2 98 0.0 2.2 335 8.3 0
23:00 - 23:30 8.0 8.3 7.9 98 0.0 1.1 340 6.1 0

Les dades en taronja només han passat un control de qualitat automàtic. Resta pendent la seva validació definitiva.